createdAt,value
2018-08-18T00:00:32.296Z,0.00
2018-08-18T00:01:32.270Z,0.00
2018-08-18T00:02:32.243Z,0.00
2018-08-18T00:03:32.218Z,0.00
2018-08-18T00:04:32.192Z,0.00
2018-08-18T00:05:32.162Z,0.00
2018-08-18T00:06:32.145Z,0.00
2018-08-18T00:07:32.118Z,0.00
2018-08-18T00:08:32.084Z,0.00
2018-08-18T00:09:32.060Z,0.00
2018-08-18T00:10:32.050Z,0.00
2018-08-18T00:11:32.004Z,0.00
2018-08-18T00:12:31.983Z,0.00
2018-08-18T00:13:32.545Z,0.00
2018-08-18T00:14:31.925Z,0.00
2018-08-18T00:15:31.903Z,0.00
2018-08-18T00:16:31.875Z,0.00
2018-08-18T00:17:31.845Z,0.00
2018-08-18T00:18:31.824Z,0.00
2018-08-18T00:19:31.798Z,0.00
2018-08-18T00:20:31.764Z,0.00
2018-08-18T00:21:31.796Z,0.00
2018-08-18T00:22:31.718Z,0.00
2018-08-18T00:23:31.691Z,0.00
2018-08-18T00:24:31.683Z,0.00
2018-08-18T00:25:31.638Z,0.00
2018-08-18T00:26:31.607Z,0.00
2018-08-18T00:27:31.600Z,0.00
2018-08-18T00:28:31.562Z,0.00
2018-08-18T00:29:31.527Z,0.00
2018-08-18T00:30:31.517Z,0.00
2018-08-18T00:31:31.480Z,0.00
2018-08-18T00:32:31.454Z,0.00
2018-08-18T00:33:31.431Z,0.00
2018-08-18T00:34:31.402Z,0.00
2018-08-18T00:35:31.381Z,0.00
2018-08-18T00:36:31.353Z,0.00
2018-08-18T00:37:31.321Z,0.00
2018-08-18T00:38:31.300Z,0.00
2018-08-18T00:39:31.286Z,0.00
2018-08-18T00:40:31.243Z,0.00
2018-08-18T00:41:31.219Z,0.00
2018-08-18T00:42:31.201Z,0.00
2018-08-18T00:43:31.162Z,0.00
2018-08-18T00:44:31.140Z,0.00
2018-08-18T00:45:31.111Z,0.00
2018-08-18T00:46:31.089Z,0.00
2018-08-18T00:47:31.058Z,0.00
2018-08-18T00:48:31.070Z,0.00
2018-08-18T00:49:31.004Z,0.00
2018-08-18T00:50:30.978Z,0.00
2018-08-18T00:51:30.949Z,0.00
2018-08-18T00:52:30.927Z,0.00
2018-08-18T00:53:30.913Z,0.00
2018-08-18T00:54:30.874Z,0.00
2018-08-18T00:55:30.861Z,0.00
2018-08-18T00:56:30.817Z,0.00
2018-08-18T00:57:30.787Z,0.00
2018-08-18T00:58:30.764Z,0.00
2018-08-18T00:59:30.738Z,0.00
2018-08-18T01:00:30.713Z,0.00
2018-08-18T01:01:30.686Z,0.00
2018-08-18T01:02:30.657Z,0.00
2018-08-18T01:03:30.640Z,0.00
2018-08-18T01:04:30.608Z,0.00
2018-08-18T01:05:30.586Z,0.00
2018-08-18T01:06:30.552Z,0.00
2018-08-18T01:07:30.525Z,0.00
2018-08-18T01:08:30.499Z,0.00
2018-08-18T01:09:30.473Z,0.00
2018-08-18T01:10:30.447Z,0.00
2018-08-18T01:11:30.575Z,0.00
2018-08-18T01:12:30.535Z,0.00
2018-08-18T01:13:30.366Z,0.00
2018-08-18T01:14:31.081Z,0.00
2018-08-18T01:15:30.318Z,0.00
2018-08-18T01:16:30.287Z,0.00
2018-08-18T01:17:30.280Z,0.00
2018-08-18T01:18:30.235Z,0.00
2018-08-18T01:19:30.205Z,0.00
2018-08-18T01:20:30.184Z,0.00
2018-08-18T01:21:30.177Z,0.00
2018-08-18T01:22:30.127Z,0.00
2018-08-18T01:23:30.109Z,0.00
2018-08-18T01:24:30.076Z,0.00
2018-08-18T01:25:30.055Z,0.00
2018-08-18T01:26:30.029Z,0.00
2018-08-18T01:27:29.992Z,0.00
2018-08-18T01:28:29.969Z,0.00
2018-08-18T01:29:29.943Z,0.00
2018-08-18T01:30:29.922Z,0.00
2018-08-18T01:31:30.503Z,0.00
2018-08-18T01:32:29.862Z,0.00
2018-08-18T01:33:29.830Z,0.00
2018-08-18T01:34:29.808Z,0.00
2018-08-18T01:35:29.782Z,0.00
2018-08-18T01:36:29.751Z,0.00
2018-08-18T01:37:29.727Z,0.00
2018-08-18T01:38:29.700Z,0.00
2018-08-18T01:39:29.671Z,0.00
2018-08-18T01:40:29.651Z,0.00
2018-08-18T01:41:29.622Z,0.00
2018-08-18T01:42:29.593Z,0.00
2018-08-18T01:43:29.568Z,0.00
2018-08-18T01:44:29.542Z,0.00
2018-08-18T01:45:29.509Z,0.00
2018-08-18T01:46:29.487Z,0.00
2018-08-18T01:47:29.474Z,0.00
2018-08-18T01:48:29.430Z,0.00
2018-08-18T01:49:29.410Z,0.00
2018-08-18T01:50:29.386Z,0.00
2018-08-18T01:51:29.356Z,0.00
2018-08-18T01:52:29.337Z,0.00
2018-08-18T01:53:29.302Z,0.00
2018-08-18T01:54:29.291Z,0.00
2018-08-18T01:55:29.260Z,0.00
2018-08-18T01:56:29.223Z,0.00
2018-08-18T01:57:29.199Z,0.00
2018-08-18T01:58:29.180Z,0.00
2018-08-18T01:59:29.142Z,0.00
2018-08-18T02:00:29.112Z,0.00
2018-08-18T02:01:29.096Z,0.00
2018-08-18T02:02:29.062Z,0.00
2018-08-18T02:03:29.035Z,0.00
2018-08-18T02:04:29.015Z,0.00
2018-08-18T02:05:28.983Z,0.00
2018-08-18T02:06:28.962Z,0.00
2018-08-18T02:07:28.938Z,0.00
2018-08-18T02:08:28.902Z,0.00
2018-08-18T02:09:28.872Z,0.00
2018-08-18T02:10:28.854Z,0.00
2018-08-18T02:11:28.819Z,0.00
2018-08-18T02:12:28.791Z,0.00
2018-08-18T02:13:28.770Z,0.00
2018-08-18T02:14:28.738Z,0.00
2018-08-18T02:15:28.715Z,0.00
2018-08-18T02:16:28.706Z,0.00
2018-08-18T02:17:28.661Z,0.00
2018-08-18T02:18:28.628Z,0.00
2018-08-18T02:19:28.610Z,0.00
2018-08-18T02:20:28.584Z,0.00
2018-08-18T02:21:28.584Z,0.00
2018-08-18T02:22:28.526Z,0.00
2018-08-18T02:23:28.499Z,0.00
2018-08-18T02:24:28.476Z,0.00
2018-08-18T02:25:28.448Z,0.00
2018-08-18T02:26:28.426Z,0.00
2018-08-18T02:27:28.396Z,0.00
2018-08-18T02:28:28.376Z,0.00
2018-08-18T02:29:28.337Z,0.00
2018-08-18T02:30:28.317Z,0.00
2018-08-18T02:31:28.284Z,0.00
2018-08-18T02:32:28.257Z,0.00
2018-08-18T02:33:28.236Z,0.00
2018-08-18T02:34:28.216Z,0.00
2018-08-18T02:35:28.177Z,0.00
2018-08-18T02:36:28.152Z,0.00
2018-08-18T02:37:28.130Z,0.00
2018-08-18T02:38:28.095Z,0.00
2018-08-18T02:39:28.075Z,0.00
2018-08-18T02:40:28.044Z,0.00
2018-08-18T02:41:28.015Z,0.00
2018-08-18T02:42:27.994Z,0.00
2018-08-18T02:43:27.965Z,0.00
2018-08-18T02:44:27.929Z,0.00
2018-08-18T02:45:27.908Z,0.00
2018-08-18T02:46:27.882Z,0.00
2018-08-18T02:47:27.857Z,0.00
2018-08-18T02:48:27.830Z,0.00
2018-08-18T02:49:27.802Z,0.00
2018-08-18T02:50:27.775Z,0.00
2018-08-18T02:51:27.757Z,0.00
2018-08-18T02:52:27.725Z,0.00
2018-08-18T02:53:27.733Z,0.00
2018-08-18T02:54:27.670Z,0.00
2018-08-18T02:55:27.643Z,0.00
2018-08-18T02:56:27.613Z,0.00
2018-08-18T02:57:27.588Z,0.00
2018-08-18T02:58:27.557Z,0.00
2018-08-18T02:59:27.532Z,0.00
2018-08-18T03:00:27.504Z,0.00
2018-08-18T03:01:27.482Z,0.00
2018-08-18T03:02:27.449Z,0.00
2018-08-18T03:03:27.426Z,0.00
2018-08-18T03:04:27.421Z,0.00
2018-08-18T03:05:27.365Z,0.00
2018-08-18T03:06:27.332Z,0.00
2018-08-18T03:07:27.315Z,0.00
2018-08-18T03:08:27.286Z,0.00
2018-08-18T03:09:27.263Z,0.00
2018-08-18T03:10:27.245Z,0.00
2018-08-18T03:11:27.204Z,0.00
2018-08-18T03:12:27.185Z,0.00
2018-08-18T03:13:27.165Z,0.00
2018-08-18T03:14:27.124Z,4.00
2018-08-18T03:15:27.092Z,4.00
2018-08-18T03:16:27.071Z,4.00
2018-08-18T03:17:27.042Z,4.00
2018-08-18T03:18:27.007Z,0.00
2018-08-18T03:19:27.001Z,4.00
2018-08-18T03:20:26.960Z,4.00
2018-08-18T03:21:26.934Z,8.00
2018-08-18T03:22:26.912Z,4.00
2018-08-18T03:23:26.878Z,8.00
2018-08-18T03:24:26.852Z,8.00
2018-08-18T03:25:26.837Z,8.00
2018-08-18T03:26:26.798Z,8.00
2018-08-18T03:27:26.784Z,8.00
2018-08-18T03:28:26.748Z,16.00
2018-08-18T03:29:26.716Z,16.00
2018-08-18T03:30:26.690Z,16.00
2018-08-18T03:31:26.696Z,20.00
2018-08-18T03:32:26.643Z,24.00
2018-08-18T03:33:26.600Z,24.00
2018-08-18T03:34:26.602Z,28.00
2018-08-18T03:35:26.561Z,32.00
2018-08-18T03:36:26.530Z,40.00
2018-08-18T03:37:26.515Z,44.00
2018-08-18T03:38:26.472Z,48.00
2018-08-18T03:39:26.438Z,52.00
2018-08-18T03:40:26.413Z,64.00
2018-08-18T03:41:26.392Z,72.00
2018-08-18T03:42:26.360Z,80.00
2018-08-18T03:43:26.353Z,88.00
2018-08-18T03:44:26.310Z,100.00
2018-08-18T03:45:26.278Z,112.00
2018-08-18T03:46:26.270Z,128.00
2018-08-18T03:47:26.226Z,136.00
2018-08-18T03:48:26.194Z,156.00
2018-08-18T03:49:26.191Z,172.00
2018-08-18T03:50:26.146Z,184.00
2018-08-18T03:51:26.116Z,204.00
2018-08-18T03:52:26.191Z,224.00
2018-08-18T03:53:26.065Z,244.00
2018-08-18T03:54:26.034Z,264.00
2018-08-18T03:55:26.010Z,288.00
2018-08-18T03:56:25.984Z,312.00
2018-08-18T03:57:25.950Z,336.00
2018-08-18T03:58:25.942Z,360.00
2018-08-18T03:59:25.901Z,388.00
2018-08-18T04:00:25.869Z,416.00
2018-08-18T04:01:25.883Z,452.00
2018-08-18T04:02:25.821Z,484.00
2018-08-18T04:03:25.800Z,520.00
2018-08-18T04:04:25.766Z,556.00
2018-08-18T04:05:25.739Z,592.00
2018-08-18T04:06:25.705Z,632.00
2018-08-18T04:07:25.686Z,668.00
2018-08-18T04:08:25.657Z,716.00
2018-08-18T04:09:25.710Z,756.00
2018-08-18T04:10:25.603Z,804.00
2018-08-18T04:11:25.575Z,844.00
2018-08-18T04:12:25.549Z,896.00
2018-08-18T04:13:25.521Z,944.00
2018-08-18T04:14:25.546Z,996.00
2018-08-18T04:15:25.464Z,1048.00
2018-08-18T04:16:25.440Z,1096.00
2018-08-18T04:17:25.415Z,1152.00
2018-08-18T04:18:25.386Z,1208.00
2018-08-18T04:19:25.361Z,1260.00
2018-08-18T04:20:25.345Z,1312.00
2018-08-18T04:21:25.301Z,1368.00
2018-08-18T04:22:25.283Z,1420.00
2018-08-18T04:23:25.252Z,1472.00
2018-08-18T04:24:25.221Z,1528.00
2018-08-18T04:25:25.268Z,1580.00
2018-08-18T04:26:25.172Z,1628.00
2018-08-18T04:27:25.143Z,1684.00
2018-08-18T04:28:25.120Z,1736.00
2018-08-18T04:29:25.092Z,1784.00
2018-08-18T04:30:25.057Z,1840.00
2018-08-18T04:31:25.037Z,1892.00
2018-08-18T04:32:25.012Z,1948.00
2018-08-18T04:33:24.977Z,2004.00
2018-08-18T04:34:24.956Z,2064.00
2018-08-18T04:35:24.974Z,2128.00
2018-08-18T04:36:24.899Z,2188.00
2018-08-18T04:37:24.875Z,2248.00
2018-08-18T04:38:24.856Z,2308.00
2018-08-18T04:39:24.824Z,2360.00
2018-08-18T04:40:24.801Z,2416.00
2018-08-18T04:41:24.771Z,2468.00
2018-08-18T04:42:24.740Z,2520.00
2018-08-18T04:43:24.740Z,2584.00
2018-08-18T04:44:24.688Z,2644.00
2018-08-18T04:45:24.658Z,2704.00
2018-08-18T04:46:24.635Z,2792.00
2018-08-18T04:47:24.612Z,2868.00
2018-08-18T04:48:24.586Z,2940.00
2018-08-18T04:49:24.566Z,3180.00
2018-08-18T04:50:24.566Z,3188.00
2018-08-18T04:51:24.506Z,3228.00
2018-08-18T04:52:24.495Z,3520.00
2018-08-18T04:53:24.453Z,3384.00
2018-08-18T04:54:24.422Z,3260.00
2018-08-18T04:55:24.412Z,3332.00
2018-08-18T04:56:24.375Z,3644.00
2018-08-18T04:57:24.354Z,3896.00
2018-08-18T04:58:24.323Z,3984.00
2018-08-18T04:59:24.394Z,4108.00
2018-08-18T05:00:24.271Z,4136.00
2018-08-18T05:01:31.864Z,3912.00
2018-08-18T05:03:17.378Z,3524.00
2018-08-18T05:04:17.318Z,3500.00
2018-08-18T05:06:10.659Z,3552.00
2018-08-18T05:07:10.604Z,3536.00
2018-08-18T05:09:03.749Z,3528.00
2018-08-18T05:10:03.687Z,3532.00
2018-08-18T05:11:56.793Z,3548.00
2018-08-18T05:12:56.775Z,3528.00
2018-08-18T05:14:50.102Z,3648.00
2018-08-18T05:15:50.050Z,3760.00
2018-08-18T05:17:43.379Z,3932.00
2018-08-18T05:18:43.327Z,4104.00
2018-08-18T05:20:36.640Z,4184.00
2018-08-18T05:21:36.611Z,4348.00
2018-08-18T05:23:29.736Z,4500.00
2018-08-18T05:24:29.695Z,4632.00
2018-08-18T05:26:22.532Z,4764.00
2018-08-18T05:27:22.489Z,4844.00
2018-08-18T05:28:22.457Z,4956.00
2018-08-18T05:29:22.433Z,4912.00
2018-08-18T05:30:22.405Z,5016.00
2018-08-18T05:31:22.380Z,5024.00
2018-08-18T05:32:22.362Z,4996.00
2018-08-18T05:33:22.330Z,5260.00
2018-08-18T05:34:22.306Z,5304.00
2018-08-18T05:35:22.277Z,5420.00
2018-08-18T05:36:22.319Z,5460.00
2018-08-18T05:37:22.227Z,5516.00
2018-08-18T05:38:22.213Z,5568.00
2018-08-18T05:39:22.177Z,5616.00
2018-08-18T05:40:22.152Z,5672.00
2018-08-18T05:41:22.130Z,5712.00
2018-08-18T05:42:22.105Z,5796.00
2018-08-18T05:43:22.101Z,5820.00
2018-08-18T05:44:22.061Z,5836.00
2018-08-18T05:45:22.028Z,5808.00
2018-08-18T05:46:22.034Z,5816.00
2018-08-18T05:47:22.005Z,5784.00
2018-08-18T05:48:21.961Z,5792.00
2018-08-18T05:49:21.971Z,5872.00
2018-08-18T05:50:21.921Z,5872.00
2018-08-18T05:51:21.876Z,6004.00
2018-08-18T05:52:21.887Z,6040.00
2018-08-18T05:53:21.824Z,6068.00
2018-08-18T05:54:21.794Z,6076.00
2018-08-18T05:55:21.775Z,6096.00
2018-08-18T05:56:21.796Z,6124.00
2018-08-18T05:57:21.760Z,6132.00
2018-08-18T05:58:21.698Z,5560.00
2018-08-18T05:59:21.679Z,5412.00
2018-08-18T06:00:21.653Z,6024.00
2018-08-18T06:01:21.635Z,6144.00
2018-08-18T06:02:21.646Z,6216.00
2018-08-18T06:03:21.574Z,6176.00
2018-08-18T06:04:21.560Z,6192.00
2018-08-18T06:05:21.531Z,6256.00
2018-08-18T06:06:21.504Z,6152.00
2018-08-18T06:07:21.529Z,6144.00
2018-08-18T06:08:21.463Z,6252.00
2018-08-18T06:09:21.429Z,6220.00
2018-08-18T06:10:21.416Z,6044.00
2018-08-18T06:11:21.377Z,5616.00
2018-08-18T06:12:21.358Z,5176.00
2018-08-18T06:13:22.127Z,4364.00
2018-08-18T06:14:21.324Z,3996.00
2018-08-18T06:15:21.318Z,3744.00
2018-08-18T06:16:21.282Z,3864.00
2018-08-18T06:17:21.242Z,3868.00
2018-08-18T06:18:21.215Z,4056.00
2018-08-18T06:19:21.189Z,3696.00
2018-08-18T06:20:21.179Z,3664.00
2018-08-18T06:21:21.170Z,3944.00
2018-08-18T06:22:21.117Z,3816.00
2018-08-18T06:23:21.106Z,3656.00
2018-08-18T06:24:21.065Z,3608.00
2018-08-18T06:25:21.071Z,3788.00
2018-08-18T06:26:21.018Z,4004.00
2018-08-18T06:27:20.986Z,3816.00
2018-08-18T06:28:20.977Z,3592.00
2018-08-18T06:29:20.976Z,3636.00
2018-08-18T06:30:20.923Z,3780.00
2018-08-18T06:31:20.905Z,3912.00
2018-08-18T06:32:20.867Z,4180.00
2018-08-18T06:33:20.854Z,4500.00
2018-08-18T06:34:20.825Z,4436.00
2018-08-18T06:35:20.796Z,4280.00
2018-08-18T06:36:20.799Z,4060.00
2018-08-18T06:37:20.798Z,3972.00
2018-08-18T06:38:20.727Z,4400.00
2018-08-18T06:39:20.716Z,4460.00
2018-08-18T06:40:20.669Z,4884.00
2018-08-18T06:41:20.707Z,4916.00
2018-08-18T06:43:20.620Z,4892.00
2018-08-18T06:44:20.588Z,4180.00
2018-08-18T06:45:20.556Z,3932.00
2018-08-18T06:46:20.529Z,4160.00
2018-08-18T06:47:20.519Z,4376.00
2018-08-18T06:48:20.508Z,4328.00
2018-08-18T06:49:20.448Z,5836.00
2018-08-18T06:50:20.439Z,7300.00
2018-08-18T06:51:20.404Z,7324.00
2018-08-18T06:52:20.385Z,7192.00
2018-08-18T06:53:20.353Z,7204.00
2018-08-18T06:54:20.369Z,7324.00
2018-08-18T06:55:20.310Z,7352.00
2018-08-18T06:56:20.296Z,7352.00
2018-08-18T06:57:20.260Z,7352.00
2018-08-18T06:58:20.234Z,7312.00
2018-08-18T06:59:20.222Z,7324.00
2018-08-18T07:00:20.196Z,7348.00
2018-08-18T07:01:20.163Z,7412.00
2018-08-18T07:02:20.143Z,7464.00
2018-08-18T07:03:20.129Z,7476.00
2018-08-18T07:04:20.087Z,7048.00
2018-08-18T07:05:20.075Z,7644.00
2018-08-18T07:06:20.051Z,7480.00
2018-08-18T07:07:20.034Z,7416.00
2018-08-18T07:08:19.995Z,7464.00
2018-08-18T07:09:19.979Z,7528.00
2018-08-18T07:10:19.979Z,7688.00
2018-08-18T07:11:19.936Z,7696.00
2018-08-18T07:12:19.898Z,7812.00
2018-08-18T07:13:19.876Z,7832.00
2018-08-18T07:14:19.853Z,7808.00
2018-08-18T07:15:19.833Z,7892.00
2018-08-18T07:16:19.821Z,7928.00
2018-08-18T07:17:19.797Z,7872.00
2018-08-18T07:18:19.768Z,7980.00
2018-08-18T07:19:19.807Z,7940.00
2018-08-18T07:20:19.714Z,8028.00
2018-08-18T07:21:19.696Z,7728.00
2018-08-18T07:22:19.672Z,7552.00
2018-08-18T07:23:19.639Z,8172.00
2018-08-18T07:24:19.622Z,8232.00
2018-08-18T07:25:19.593Z,8280.00
2018-08-18T07:26:19.570Z,8316.00
2018-08-18T07:27:19.557Z,8340.00
2018-08-18T07:28:19.595Z,8376.00
2018-08-18T07:29:19.511Z,8420.00
2018-08-18T07:30:19.484Z,8444.00
2018-08-18T07:31:19.461Z,8460.00
2018-08-18T07:32:19.443Z,8500.00
2018-08-18T07:33:19.415Z,8540.00
2018-08-18T07:34:19.402Z,8576.00
2018-08-18T07:35:19.370Z,8596.00
2018-08-18T07:36:19.357Z,8620.00
2018-08-18T07:37:19.354Z,8640.00
2018-08-18T07:38:19.303Z,8664.00
2018-08-18T07:39:19.298Z,8696.00
2018-08-18T07:40:19.271Z,8724.00
2018-08-18T07:41:19.236Z,8772.00
2018-08-18T07:42:19.215Z,8820.00
2018-08-18T07:43:19.190Z,8868.00
2018-08-18T07:44:19.174Z,8832.00
2018-08-18T07:45:19.147Z,8872.00
2018-08-18T07:46:19.138Z,8936.00
2018-08-18T07:47:19.105Z,8932.00
2018-08-18T07:48:19.080Z,8980.00
2018-08-18T07:49:19.060Z,9044.00
2018-08-18T07:50:19.650Z,9080.00
2018-08-18T07:51:19.020Z,9128.00
2018-08-18T07:52:18.990Z,9168.00
2018-08-18T07:53:19.098Z,9188.00
2018-08-18T07:54:18.945Z,9216.00
2018-08-18T07:55:18.925Z,9168.00
2018-08-18T07:56:18.903Z,9240.00
2018-08-18T07:57:18.889Z,9288.00
2018-08-18T07:58:18.872Z,9304.00
2018-08-18T07:59:18.836Z,9400.00
2018-08-18T08:00:18.822Z,9408.00
2018-08-18T08:01:18.805Z,9340.00
2018-08-18T08:02:18.771Z,9320.00
2018-08-18T08:03:18.749Z,9280.00
2018-08-18T08:04:18.735Z,9300.00
2018-08-18T08:05:18.706Z,9252.00
2018-08-18T08:06:18.687Z,9392.00
2018-08-18T08:07:18.671Z,9396.00
2018-08-18T08:08:18.638Z,9484.00
2018-08-18T08:09:18.628Z,9304.00
2018-08-18T08:10:18.601Z,9552.00
2018-08-18T08:11:18.579Z,9448.00
2018-08-18T08:12:18.557Z,9520.00
2018-08-18T08:13:18.534Z,9668.00
2018-08-18T08:14:18.513Z,9780.00
2018-08-18T08:15:18.486Z,9732.00
2018-08-18T08:16:18.480Z,9924.00
2018-08-18T08:17:18.448Z,9972.00
2018-08-18T08:18:18.462Z,9968.00
2018-08-18T08:19:18.406Z,9992.00
2018-08-18T08:20:18.383Z,10036.00
2018-08-18T08:21:18.362Z,10104.00
2018-08-18T08:22:18.343Z,10128.00
2018-08-18T08:23:18.319Z,10156.00
2018-08-18T08:24:18.300Z,10140.00
2018-08-18T08:25:18.276Z,10124.00
2018-08-18T08:26:18.253Z,10192.00
2018-08-18T08:27:18.234Z,10224.00
2018-08-18T08:28:18.216Z,10188.00
2018-08-18T08:29:18.198Z,10264.00
2018-08-18T08:30:18.178Z,10312.00
2018-08-18T08:31:18.151Z,10348.00
2018-08-18T08:32:18.132Z,10408.00
2018-08-18T08:33:18.104Z,10432.00
2018-08-18T08:34:18.094Z,10340.00
2018-08-18T08:35:18.064Z,10400.00
2018-08-18T08:36:18.044Z,10480.00
2018-08-18T08:37:18.022Z,10528.00
2018-08-18T08:38:18.003Z,10504.00
2018-08-18T08:39:17.980Z,10532.00
2018-08-18T08:40:17.980Z,10640.00
2018-08-18T08:41:17.940Z,10664.00
2018-08-18T08:42:17.921Z,10624.00
2018-08-18T08:43:17.947Z,10684.00
2018-08-18T08:44:17.872Z,10676.00
2018-08-18T08:45:17.874Z,10680.00
2018-08-18T08:46:17.837Z,10744.00
2018-08-18T08:47:17.818Z,10764.00
2018-08-18T08:48:17.794Z,10688.00
2018-08-18T08:49:17.774Z,10796.00
2018-08-18T08:50:17.751Z,10780.00
2018-08-18T08:51:17.725Z,10936.00
2018-08-18T08:52:17.715Z,11096.00
2018-08-18T08:53:17.687Z,11076.00
2018-08-18T08:54:17.677Z,11028.00
2018-08-18T08:55:17.645Z,11012.00
2018-08-18T08:56:17.643Z,11064.00
2018-08-18T08:57:17.609Z,11108.00
2018-08-18T08:58:17.591Z,11068.00
2018-08-18T08:59:17.567Z,11100.00
2018-08-18T09:00:17.548Z,11104.00
2018-08-18T09:01:17.556Z,11076.00
2018-08-18T09:02:17.511Z,11132.00
2018-08-18T09:03:17.493Z,11160.00
2018-08-18T09:04:17.467Z,11188.00
2018-08-18T09:05:17.468Z,11268.00
2018-08-18T09:06:17.428Z,11384.00
2018-08-18T09:07:17.444Z,11432.00
2018-08-18T09:08:17.391Z,11412.00
2018-08-18T09:09:17.367Z,11216.00
2018-08-18T09:10:17.348Z,11436.00
2018-08-18T09:11:17.367Z,11620.00
2018-08-18T09:12:17.305Z,11768.00
2018-08-18T09:13:17.285Z,11620.00
2018-08-18T09:14:17.269Z,11608.00
2018-08-18T09:15:18.154Z,11724.00
2018-08-18T09:16:17.224Z,11944.00
2018-08-18T09:17:17.211Z,12088.00
2018-08-18T09:18:17.185Z,12524.00
2018-08-18T09:19:17.165Z,12700.00
2018-08-18T09:20:17.151Z,12584.00
2018-08-18T09:21:17.121Z,12448.00
2018-08-18T09:22:17.112Z,12484.00
2018-08-18T09:23:17.088Z,12416.00
2018-08-18T09:24:17.080Z,12384.00
2018-08-18T09:25:17.042Z,12280.00
2018-08-18T09:26:17.043Z,12300.00
2018-08-18T09:27:17.008Z,12332.00
2018-08-18T09:28:16.989Z,12348.00
2018-08-18T09:29:17.676Z,12416.00
2018-08-18T09:30:16.956Z,12428.00
2018-08-18T09:31:16.929Z,12344.00
2018-08-18T09:32:16.911Z,12380.00
2018-08-18T09:33:16.888Z,12436.00
2018-08-18T09:34:16.873Z,12476.00
2018-08-18T09:35:16.854Z,12568.00
2018-08-18T09:36:17.692Z,12624.00
2018-08-18T09:37:16.817Z,12748.00
2018-08-18T09:38:16.819Z,13004.00
2018-08-18T09:39:16.778Z,13112.00
2018-08-18T09:40:16.760Z,13240.00
2018-08-18T09:41:16.748Z,13400.00
2018-08-18T09:42:16.721Z,13580.00
2018-08-18T09:43:16.701Z,13772.00
2018-08-18T09:44:16.688Z,13804.00
2018-08-18T09:45:16.696Z,13768.00
2018-08-18T09:46:16.699Z,13868.00
2018-08-18T09:47:16.629Z,13940.00
2018-08-18T09:48:16.617Z,13976.00
2018-08-18T09:49:16.590Z,13992.00
2018-08-18T09:50:16.572Z,13808.00
2018-08-18T09:51:16.550Z,13720.00
2018-08-18T09:52:16.543Z,13720.00
2018-08-18T09:53:16.521Z,13760.00
2018-08-18T09:54:16.498Z,13708.00
2018-08-18T09:55:16.480Z,13676.00
2018-08-18T09:56:16.467Z,13656.00
2018-08-18T09:57:16.443Z,13756.00
2018-08-18T09:58:16.424Z,13708.00
2018-08-18T09:59:16.463Z,13672.00
2018-08-18T10:00:16.393Z,13540.00
2018-08-18T10:01:16.372Z,13432.00
2018-08-18T10:02:16.354Z,13328.00
2018-08-18T10:03:17.170Z,13296.00
2018-08-18T10:04:16.359Z,13244.00
2018-08-18T10:05:16.294Z,13240.00
2018-08-18T10:06:16.288Z,13120.00
2018-08-18T10:07:16.262Z,13156.00
2018-08-18T10:08:16.248Z,13140.00
2018-08-18T10:09:17.176Z,13156.00
2018-08-18T10:10:16.207Z,13160.00
2018-08-18T10:11:16.187Z,13164.00
2018-08-18T10:12:16.172Z,13068.00
2018-08-18T10:13:16.154Z,13128.00
2018-08-18T10:14:16.138Z,13128.00
2018-08-18T10:15:16.164Z,13036.00
2018-08-18T10:16:16.105Z,13132.00
2018-08-18T10:17:16.078Z,13020.00
2018-08-18T10:18:16.064Z,12936.00
2018-08-18T10:19:16.045Z,12852.00
2018-08-18T10:20:16.027Z,12932.00
2018-08-18T10:21:16.008Z,12892.00
2018-08-18T10:22:15.999Z,12608.00
2018-08-18T10:23:15.974Z,12652.00
2018-08-18T10:24:15.957Z,12688.00
2018-08-18T10:25:15.933Z,12924.00
2018-08-18T10:26:15.929Z,13020.00
2018-08-18T10:27:15.946Z,13172.00
2018-08-18T10:28:15.885Z,13152.00
2018-08-18T10:29:15.866Z,13188.00
2018-08-18T10:30:15.858Z,13192.00
2018-08-18T10:31:15.831Z,13204.00
2018-08-18T10:32:15.824Z,13252.00
2018-08-18T10:33:15.810Z,13220.00
2018-08-18T10:34:15.780Z,13196.00
2018-08-18T10:35:15.760Z,13168.00
2018-08-18T10:36:15.750Z,13120.00
2018-08-18T10:37:15.727Z,13144.00
2018-08-18T10:38:15.712Z,13196.00
2018-08-18T10:39:15.687Z,13204.00
2018-08-18T10:40:15.674Z,13116.00
2018-08-18T10:41:15.647Z,13044.00
2018-08-18T10:42:15.743Z,12980.00
2018-08-18T10:43:15.616Z,13080.00
2018-08-18T10:44:15.648Z,13040.00
2018-08-18T10:45:15.590Z,13084.00
2018-08-18T10:46:15.564Z,13192.00
2018-08-18T10:47:15.546Z,13240.00
2018-08-18T10:48:15.529Z,13144.00
2018-08-18T10:49:15.516Z,13124.00
2018-08-18T10:50:15.495Z,12708.00
2018-08-18T10:51:15.477Z,12712.00
2018-08-18T10:52:15.457Z,13032.00
2018-08-18T10:53:15.443Z,13136.00
2018-08-18T10:54:15.423Z,13180.00
2018-08-18T10:55:15.404Z,13164.00
2018-08-18T10:56:15.389Z,13028.00
2018-08-18T10:57:15.367Z,12740.00
2018-08-18T10:58:15.350Z,13040.00
2018-08-18T10:59:15.335Z,12824.00
2018-08-18T11:00:15.316Z,12488.00
2018-08-18T11:01:15.299Z,12816.00
2018-08-18T11:02:15.279Z,13084.00
2018-08-18T11:03:15.312Z,13156.00
2018-08-18T11:04:15.244Z,13144.00
2018-08-18T11:05:15.225Z,13100.00
2018-08-18T11:06:15.208Z,13068.00
2018-08-18T11:07:15.188Z,13064.00
2018-08-18T11:08:15.172Z,13084.00
2018-08-18T11:09:15.156Z,12652.00
2018-08-18T11:10:15.133Z,13044.00
2018-08-18T11:11:15.130Z,13020.00
2018-08-18T11:12:15.101Z,13164.00
2018-08-18T11:13:15.082Z,13188.00
2018-08-18T11:14:15.062Z,13180.00
2018-08-18T11:15:15.050Z,13296.00
2018-08-18T11:16:15.028Z,13352.00
2018-08-18T11:17:15.008Z,13360.00
2018-08-18T11:18:14.986Z,13320.00
2018-08-18T11:19:14.981Z,13324.00
2018-08-18T11:20:14.963Z,13432.00
2018-08-18T11:21:14.946Z,13424.00
2018-08-18T11:22:14.917Z,13408.00
2018-08-18T11:23:14.908Z,13460.00
2018-08-18T11:24:14.884Z,13304.00
2018-08-18T11:25:14.870Z,13320.00
2018-08-18T11:26:14.842Z,13084.00
2018-08-18T11:27:14.834Z,12704.00
2018-08-18T11:28:14.815Z,12360.00
2018-08-18T11:29:14.802Z,11292.00
2018-08-18T11:30:14.775Z,11652.00
2018-08-18T11:31:14.765Z,11820.00
2018-08-18T11:32:14.745Z,13040.00
2018-08-18T11:33:14.723Z,13264.00
2018-08-18T11:34:14.706Z,13336.00
2018-08-18T11:35:14.768Z,13404.00
2018-08-18T11:36:14.668Z,13464.00
2018-08-18T11:37:14.650Z,13532.00
2018-08-18T11:38:14.643Z,13184.00
2018-08-18T11:39:14.630Z,12584.00
2018-08-18T11:40:14.599Z,12200.00
2018-08-18T11:41:14.581Z,11904.00
2018-08-18T11:42:14.572Z,11256.00
2018-08-18T11:43:14.550Z,11420.00
2018-08-18T11:44:14.528Z,11684.00
2018-08-18T11:45:14.507Z,12420.00
2018-08-18T11:46:14.495Z,12932.00
2018-08-18T11:47:14.472Z,13336.00
2018-08-18T11:48:14.456Z,13496.00
2018-08-18T11:49:14.436Z,13436.00
2018-08-18T11:50:14.423Z,13572.00
2018-08-18T11:51:14.399Z,13432.00
2018-08-18T11:52:14.382Z,12856.00
2018-08-18T11:53:14.368Z,13160.00
2018-08-18T11:54:14.345Z,13276.00
2018-08-18T11:55:14.325Z,13320.00
2018-08-18T11:56:14.310Z,13188.00
2018-08-18T11:57:14.295Z,12964.00
2018-08-18T11:58:14.275Z,12752.00
2018-08-18T11:59:14.257Z,12756.00
2018-08-18T12:00:14.236Z,12780.00
2018-08-18T12:01:14.223Z,12656.00
2018-08-18T12:02:14.204Z,13052.00
2018-08-18T12:03:14.181Z,13328.00
2018-08-18T12:04:14.188Z,13464.00
2018-08-18T12:05:14.150Z,12972.00
2018-08-18T12:06:14.145Z,13636.00
2018-08-18T12:07:14.116Z,13912.00
2018-08-18T12:08:14.106Z,13852.00
2018-08-18T12:09:14.085Z,14000.00
2018-08-18T12:10:14.069Z,13908.00
2018-08-18T12:11:14.045Z,13664.00
2018-08-18T12:12:14.029Z,13480.00
2018-08-18T12:13:14.013Z,14036.00
2018-08-18T12:14:13.996Z,13852.00
2018-08-18T12:15:13.975Z,13540.00
2018-08-18T12:16:13.961Z,13220.00
2018-08-18T12:17:13.943Z,12944.00
2018-08-18T12:18:13.928Z,12104.00
2018-08-18T12:19:13.912Z,11704.00
2018-08-18T12:20:13.895Z,12032.00
2018-08-18T12:21:13.875Z,12144.00
2018-08-18T12:22:13.863Z,12808.00
2018-08-18T12:23:13.842Z,13204.00
2018-08-18T12:24:13.824Z,13608.00
2018-08-18T12:25:14.706Z,13584.00
2018-08-18T12:26:13.793Z,13544.00
2018-08-18T12:27:13.796Z,13828.00
2018-08-18T12:28:13.758Z,13880.00